Terminal Aerodrome Forecast
Issued by NWS Twin Cities, MN

Home | Current Version | Previous Version | Text Only | Print | Product List | Glossary On
Versions: 1 2 3 4 5 6 7 8 9 10 11 12 13 14 15 16 17 18 19 20 21 22 23
000
FTUS43 KMPX 231721
TAFMSP
TAF
KMSP 231721Z 2318/2424 30013KT P6SM VCSH SCT040 BKN060 BKN090
     FM231900 30016G24KT P6SM VCTS SCT040 BKN060CB
      TEMPO 2319/2322 6SM SHRA BKN040
     FM232200 30016G24KT P6SM VCSH BKN060
     FM240200 29009KT P6SM SCT070
     FM241600 29013G20KT P6SM FEW040 BKN110 PROB30 2420/2423 -TSRA
      BKN040CB=

USA.gov is the U.S. government's official web portal to all federal, state and local government web resources and services.